sensor_id;sensor_type;location;lat;lon;timestamp;P1;durP1;ratioP1;P2;durP2;ratioP2
12141;SDS011;6134;59.284;18.022;2023-04-24T00:02:12;5.22;;;3.22;;
12141;SDS011;6134;59.284;18.022;2023-04-24T00:04:41;5.55;;;4.20;;
12141;SDS011;6134;59.284;18.022;2023-04-24T00:07:12;3.88;;;3.47;;
12141;SDS011;6134;59.284;18.022;2023-04-24T00:09:43;5.05;;;3.65;;
12141;SDS011;6134;59.284;18.022;2023-04-24T00:12:13;4.57;;;3.25;;
12141;SDS011;6134;59.284;18.022;2023-04-24T00:14:42;5.20;;;3.47;;
12141;SDS011;6134;59.284;18.022;2023-04-24T00:17:10;4.32;;;3.88;;
12141;SDS011;6134;59.284;18.022;2023-04-24T00:19:39;6.40;;;3.95;;
12141;SDS011;6134;59.284;18.022;2023-04-24T00:22:08;6.57;;;3.95;;
12141;SDS011;6134;59.284;18.022;2023-04-24T00:24:38;5.60;;;3.85;;
12141;SDS011;6134;59.284;18.022;2023-04-24T00:27:07;4.65;;;3.67;;
12141;SDS011;6134;59.284;18.022;2023-04-24T00:29:36;6.18;;;4.03;;
12141;SDS011;6134;59.284;18.022;2023-04-24T00:32:06;5.32;;;4.18;;
12141;SDS011;6134;59.284;18.022;2023-04-24T00:34:35;7.00;;;3.97;;
12141;SDS011;6134;59.284;18.022;2023-04-24T00:37:03;5.40;;;4.00;;
12141;SDS011;6134;59.284;18.022;2023-04-24T00:39:32;4.63;;;3.65;;
12141;SDS011;6134;59.284;18.022;2023-04-24T00:42:02;6.57;;;3.72;;
12141;SDS011;6134;59.284;18.022;2023-04-24T00:44:32;4.68;;;3.40;;
12141;SDS011;6134;59.284;18.022;2023-04-24T00:47:01;7.35;;;3.63;;
12141;SDS011;6134;59.284;18.022;2023-04-24T00:49:30;6.53;;;3.70;;
12141;SDS011;6134;59.284;18.022;2023-04-24T00:51:59;4.97;;;3.28;;
12141;SDS011;6134;59.284;18.022;2023-04-24T00:54:28;6.57;;;3.95;;
12141;SDS011;6134;59.284;18.022;2023-04-24T00:56:57;5.20;;;3.90;;
12141;SDS011;6134;59.284;18.022;2023-04-24T00:59:29;10.70;;;3.90;;
12141;SDS011;6134;59.284;18.022;2023-04-24T01:01:58;3.80;;;3.40;;
12141;SDS011;6134;59.284;18.022;2023-04-24T01:04:27;6.82;;;4.13;;
12141;SDS011;6134;59.284;18.022;2023-04-24T01:06:56;5.28;;;3.60;;
12141;SDS011;6134;59.284;18.022;2023-04-24T01:09:25;5.28;;;3.55;;
12141;SDS011;6134;59.284;18.022;2023-04-24T01:11:54;5.25;;;3.70;;
12141;SDS011;6134;59.284;18.022;2023-04-24T01:14:23;3.90;;;2.90;;
12141;SDS011;6134;59.284;18.022;2023-04-24T01:16:53;5.65;;;2.95;;
12141;SDS011;6134;59.284;18.022;2023-04-24T01:19:24;5.80;;;3.20;;
12141;SDS011;6134;59.284;18.022;2023-04-24T01:21:53;5.53;;;3.05;;
12141;SDS011;6134;59.284;18.022;2023-04-24T01:24:25;6.20;;;3.05;;
12141;SDS011;6134;59.284;18.022;2023-04-24T01:26:53;6.45;;;3.10;;
12141;SDS011;6134;59.284;18.022;2023-04-24T01:29:22;5.80;;;3.67;;
12141;SDS011;6134;59.284;18.022;2023-04-24T01:31:51;6.88;;;3.85;;
12141;SDS011;6134;59.284;18.022;2023-04-24T01:34:20;5.15;;;3.58;;
12141;SDS011;6134;59.284;18.022;2023-04-24T01:36:49;7.60;;;3.95;;
12141;SDS011;6134;59.284;18.022;2023-04-24T01:39:18;8.15;;;3.97;;
12141;SDS011;6134;59.284;18.022;2023-04-24T01:41:51;5.82;;;3.72;;
12141;SDS011;6134;59.284;18.022;2023-04-24T01:44:20;7.35;;;4.30;;
12141;SDS011;6134;59.284;18.022;2023-04-24T01:46:49;7.28;;;3.53;;
12141;SDS011;6134;59.284;18.022;2023-04-24T01:49:18;6.75;;;3.75;;
12141;SDS011;6134;59.284;18.022;2023-04-24T01:51:46;11.32;;;5.00;;
12141;SDS011;6134;59.284;18.022;2023-04-24T01:54:15;7.70;;;4.03;;
12141;SDS011;6134;59.284;18.022;2023-04-24T01:56:44;8.32;;;4.30;;
12141;SDS011;6134;59.284;18.022;2023-04-24T01:59:15;9.45;;;4.82;;
12141;SDS011;6134;59.284;18.022;2023-04-24T02:01:45;8.65;;;3.95;;
12141;SDS011;6134;59.284;18.022;2023-04-24T02:04:14;7.03;;;4.40;;
12141;SDS011;6134;59.284;18.022;2023-04-24T02:06:43;7.63;;;3.78;;
12141;SDS011;6134;59.284;18.022;2023-04-24T02:09:12;9.02;;;4.40;;
12141;SDS011;6134;59.284;18.022;2023-04-24T02:11:41;11.50;;;4.82;;
12141;SDS011;6134;59.284;18.022;2023-04-24T02:14:09;8.80;;;3.85;;
12141;SDS011;6134;59.284;18.022;2023-04-24T02:16:40;12.88;;;4.45;;
12141;SDS011;6134;59.284;18.022;2023-04-24T02:19:10;6.20;;;3.90;;
12141;SDS011;6134;59.284;18.022;2023-04-24T02:21:39;8.18;;;3.88;;
12141;SDS011;6134;59.284;18.022;2023-04-24T02:24:07;7.07;;;3.80;;
12141;SDS011;6134;59.284;18.022;2023-04-24T02:26:36;6.13;;;3.80;;
12141;SDS011;6134;59.284;18.022;2023-04-24T02:29:05;7.53;;;4.03;;
12141;SDS011;6134;59.284;18.022;2023-04-24T02:31:34;7.63;;;3.97;;
12141;SDS011;6134;59.284;18.022;2023-04-24T02:34:04;8.02;;;4.20;;
12141;SDS011;6134;59.284;18.022;2023-04-24T02:36:33;8.15;;;3.60;;
12141;SDS011;6134;59.284;18.022;2023-04-24T02:39:02;7.82;;;3.20;;
12141;SDS011;6134;59.284;18.022;2023-04-24T02:41:31;7.57;;;3.67;;
12141;SDS011;6134;59.284;18.022;2023-04-24T02:44:00;6.55;;;3.22;;
12141;SDS011;6134;59.284;18.022;2023-04-24T02:46:29;7.57;;;3.88;;
12141;SDS011;6134;59.284;18.022;2023-04-24T02:48:59;7.20;;;3.83;;
12141;SDS011;6134;59.284;18.022;2023-04-24T02:51:29;6.97;;;3.90;;
12141;SDS011;6134;59.284;18.022;2023-04-24T02:53:57;8.15;;;3.70;;
12141;SDS011;6134;59.284;18.022;2023-04-24T02:56:27;10.95;;;5.10;;
12141;SDS011;6134;59.284;18.022;2023-04-24T02:58:57;8.80;;;4.22;;
12141;SDS011;6134;59.284;18.022;2023-04-24T03:01:26;9.13;;;4.97;;
12141;SDS011;6134;59.284;18.022;2023-04-24T03:03:55;10.52;;;4.38;;
12141;SDS011;6134;59.284;18.022;2023-04-24T03:06:25;8.32;;;4.53;;
12141;SDS011;6134;59.284;18.022;2023-04-24T03:08:55;9.05;;;3.78;;
12141;SDS011;6134;59.284;18.022;2023-04-24T03:11:25;7.72;;;3.90;;
12141;SDS011;6134;59.284;18.022;2023-04-24T03:13:53;7.05;;;3.35;;
12141;SDS011;6134;59.284;18.022;2023-04-24T03:16:22;7.18;;;3.38;;
12141;SDS011;6134;59.284;18.022;2023-04-24T03:18:54;6.50;;;3.63;;
12141;SDS011;6134;59.284;18.022;2023-04-24T03:21:25;7.15;;;2.97;;
12141;SDS011;6134;59.284;18.022;2023-04-24T03:23:55;4.80;;;2.67;;
12141;SDS011;6134;59.284;18.022;2023-04-24T03:26:24;5.25;;;3.22;;
12141;SDS011;6134;59.284;18.022;2023-04-24T03:29:08;7.97;;;2.80;;
12141;SDS011;6134;59.284;18.022;2023-04-24T03:31:37;5.18;;;2.97;;
12141;SDS011;6134;59.284;18.022;2023-04-24T03:34:06;6.97;;;3.40;;
12141;SDS011;6134;59.284;18.022;2023-04-24T03:36:36;5.53;;;2.83;;
12141;SDS011;6134;59.284;18.022;2023-04-24T03:39:07;6.03;;;3.15;;
12141;SDS011;6134;59.284;18.022;2023-04-24T03:41:44;6.13;;;3.10;;
12141;SDS011;6134;59.284;18.022;2023-04-24T03:44:17;6.88;;;3.42;;
12141;SDS011;6134;59.284;18.022;2023-04-24T03:46:46;7.43;;;4.38;;
12141;SDS011;6134;59.284;18.022;2023-04-24T03:49:15;7.32;;;3.63;;
12141;SDS011;6134;59.284;18.022;2023-04-24T03:51:46;8.40;;;3.67;;
12141;SDS011;6134;59.284;18.022;2023-04-24T03:54:24;5.93;;;3.70;;
12141;SDS011;6134;59.284;18.022;2023-04-24T03:56:53;5.82;;;3.65;;
12141;SDS011;6134;59.284;18.022;2023-04-24T03:59:24;8.50;;;4.10;;
12141;SDS011;6134;59.284;18.022;2023-04-24T04:02:19;6.95;;;3.55;;
12141;SDS011;6134;59.284;18.022;2023-04-24T04:04:48;8.65;;;4.13;;
12141;SDS011;6134;59.284;18.022;2023-04-24T04:07:17;6.85;;;3.45;;
12141;SDS011;6134;59.284;18.022;2023-04-24T04:09:47;5.65;;;2.83;;
12141;SDS011;6134;59.284;18.022;2023-04-24T04:12:16;9.10;;;3.70;;
12141;SDS011;6134;59.284;18.022;2023-04-24T04:14:45;7.15;;;3.95;;
12141;SDS011;6134;59.284;18.022;2023-04-24T04:17:13;9.00;;;3.70;;
12141;SDS011;6134;59.284;18.022;2023-04-24T04:19:43;9.70;;;3.90;;
12141;SDS011;6134;59.284;18.022;2023-04-24T04:22:12;9.27;;;4.32;;
12141;SDS011;6134;59.284;18.022;2023-04-24T04:24:44;8.75;;;4.80;;
12141;SDS011;6134;59.284;18.022;2023-04-24T04:27:15;10.68;;;5.20;;
12141;SDS011;6134;59.284;18.022;2023-04-24T04:29:52;12.00;;;5.57;;
12141;SDS011;6134;59.284;18.022;2023-04-24T04:32:23;10.98;;;4.95;;
12141;SDS011;6134;59.284;18.022;2023-04-24T04:34:52;10.95;;;5.05;;
12141;SDS011;6134;59.284;18.022;2023-04-24T04:37:24;11.20;;;4.75;;
12141;SDS011;6134;59.284;18.022;2023-04-24T04:40:21;10.90;;;4.28;;
12141;SDS011;6134;59.284;18.022;2023-04-24T04:42:57;12.85;;;5.07;;
12141;SDS011;6134;59.284;18.022;2023-04-24T04:45:31;9.25;;;4.65;;
12141;SDS011;6134;59.284;18.022;2023-04-24T04:48:21;7.80;;;3.83;;
12141;SDS011;6134;59.284;18.022;2023-04-24T04:50:51;7.00;;;3.83;;
12141;SDS011;6134;59.284;18.022;2023-04-24T04:53:21;9.25;;;4.20;;
12141;SDS011;6134;59.284;18.022;2023-04-24T04:55:50;8.88;;;4.22;;
12141;SDS011;6134;59.284;18.022;2023-04-24T04:58:25;10.98;;;4.70;;
12141;SDS011;6134;59.284;18.022;2023-04-24T05:00:57;6.90;;;4.47;;
12141;SDS011;6134;59.284;18.022;2023-04-24T05:03:30;8.25;;;3.85;;
12141;SDS011;6134;59.284;18.022;2023-04-24T05:06:04;9.00;;;4.38;;
12141;SDS011;6134;59.284;18.022;2023-04-24T05:08:36;9.40;;;4.40;;
12141;SDS011;6134;59.284;18.022;2023-04-24T05:11:08;8.52;;;3.83;;
12141;SDS011;6134;59.284;18.022;2023-04-24T05:13:40;7.53;;;4.28;;
12141;SDS011;6134;59.284;18.022;2023-04-24T05:16:16;6.35;;;3.85;;
12141;SDS011;6134;59.284;18.022;2023-04-24T05:18:47;7.18;;;4.15;;
12141;SDS011;6134;59.284;18.022;2023-04-24T05:21:20;11.65;;;4.68;;
12141;SDS011;6134;59.284;18.022;2023-04-24T05:23:50;7.13;;;4.13;;
12141;SDS011;6134;59.284;18.022;2023-04-24T05:26:33;7.35;;;4.45;;
12141;SDS011;6134;59.284;18.022;2023-04-24T05:29:04;9.65;;;5.10;;
12141;SDS011;6134;59.284;18.022;2023-04-24T05:31:33;6.25;;;4.32;;
12141;SDS011;6134;59.284;18.022;2023-04-24T05:34:02;7.13;;;4.45;;
12141;SDS011;6134;59.284;18.022;2023-04-24T05:36:32;8.25;;;4.18;;
12141;SDS011;6134;59.284;18.022;2023-04-24T05:39:01;8.57;;;4.57;;
12141;SDS011;6134;59.284;18.022;2023-04-24T05:41:33;7.85;;;3.78;;
12141;SDS011;6134;59.284;18.022;2023-04-24T05:44:04;5.95;;;4.03;;
12141;SDS011;6134;59.284;18.022;2023-04-24T05:46:32;9.65;;;4.03;;
12141;SDS011;6134;59.284;18.022;2023-04-24T05:49:01;7.47;;;3.83;;
12141;SDS011;6134;59.284;18.022;2023-04-24T05:51:32;10.40;;;4.68;;
12141;SDS011;6134;59.284;18.022;2023-04-24T05:54:01;6.80;;;4.45;;
12141;SDS011;6134;59.284;18.022;2023-04-24T05:56:30;5.90;;;4.13;;
12141;SDS011;6134;59.284;18.022;2023-04-24T05:59:03;5.60;;;3.40;;
12141;SDS011;6134;59.284;18.022;2023-04-24T06:01:32;5.75;;;4.05;;
12141;SDS011;6134;59.284;18.022;2023-04-24T06:04:08;5.32;;;3.47;;
12141;SDS011;6134;59.284;18.022;2023-04-24T06:06:37;6.05;;;3.70;;
12141;SDS011;6134;59.284;18.022;2023-04-24T06:09:07;6.75;;;3.63;;
12141;SDS011;6134;59.284;18.022;2023-04-24T06:11:36;6.25;;;3.70;;
12141;SDS011;6134;59.284;18.022;2023-04-24T06:14:08;7.63;;;3.78;;
12141;SDS011;6134;59.284;18.022;2023-04-24T06:16:37;5.43;;;3.22;;
12141;SDS011;6134;59.284;18.022;2023-04-24T06:19:26;5.53;;;3.25;;
12141;SDS011;6134;59.284;18.022;2023-04-24T06:21:55;4.85;;;2.65;;
12141;SDS011;6134;59.284;18.022;2023-04-24T06:24:26;4.47;;;2.47;;
12141;SDS011;6134;59.284;18.022;2023-04-24T06:26:57;5.78;;;2.70;;
12141;SDS011;6134;59.284;18.022;2023-04-24T06:29:28;3.42;;;2.40;;
12141;SDS011;6134;59.284;18.022;2023-04-24T06:31:57;3.42;;;2.15;;
12141;SDS011;6134;59.284;18.022;2023-04-24T06:34:26;5.50;;;2.55;;
12141;SDS011;6134;59.284;18.022;2023-04-24T06:36:55;3.92;;;2.30;;
12141;SDS011;6134;59.284;18.022;2023-04-24T06:39:25;3.35;;;2.38;;
12141;SDS011;6134;59.284;18.022;2023-04-24T06:41:53;4.03;;;2.00;;
12141;SDS011;6134;59.284;18.022;2023-04-24T06:44:23;5.80;;;2.85;;
12141;SDS011;6134;59.284;18.022;2023-04-24T06:46:53;3.60;;;2.05;;
12141;SDS011;6134;59.284;18.022;2023-04-24T06:49:21;8.57;;;2.30;;
12141;SDS011;6134;59.284;18.022;2023-04-24T06:51:50;3.70;;;2.40;;
12141;SDS011;6134;59.284;18.022;2023-04-24T06:54:19;4.28;;;2.35;;
12141;SDS011;6134;59.284;18.022;2023-04-24T06:56:48;3.83;;;2.20;;
12141;SDS011;6134;59.284;18.022;2023-04-24T06:59:18;3.28;;;2.10;;
12141;SDS011;6134;59.284;18.022;2023-04-24T07:01:47;2.97;;;2.00;;
12141;SDS011;6134;59.284;18.022;2023-04-24T07:04:20;4.75;;;2.50;;
12141;SDS011;6134;59.284;18.022;2023-04-24T07:06:49;3.30;;;2.45;;
12141;SDS011;6134;59.284;18.022;2023-04-24T07:09:18;3.58;;;2.00;;
12141;SDS011;6134;59.284;18.022;2023-04-24T07:11:46;2.78;;;2.03;;
12141;SDS011;6134;59.284;18.022;2023-04-24T07:14:15;2.70;;;2.45;;
12141;SDS011;6134;59.284;18.022;2023-04-24T07:16:44;4.22;;;2.38;;
12141;SDS011;6134;59.284;18.022;2023-04-24T07:19:13;3.47;;;2.50;;
12141;SDS011;6134;59.284;18.022;2023-04-24T07:21:43;4.18;;;2.38;;
12141;SDS011;6134;59.284;18.022;2023-04-24T07:24:12;2.90;;;2.08;;
12141;SDS011;6134;59.284;18.022;2023-04-24T07:26:44;3.85;;;2.33;;
12141;SDS011;6134;59.284;18.022;2023-04-24T07:29:13;2.72;;;2.22;;
12141;SDS011;6134;59.284;18.022;2023-04-24T07:31:42;3.90;;;2.53;;
12141;SDS011;6134;59.284;18.022;2023-04-24T07:34:11;2.80;;;2.10;;
12141;SDS011;6134;59.284;18.022;2023-04-24T07:36:40;3.13;;;2.22;;
12141;SDS011;6134;59.284;18.022;2023-04-24T07:39:10;3.15;;;2.10;;
12141;SDS011;6134;59.284;18.022;2023-04-24T07:41:39;3.03;;;2.33;;
12141;SDS011;6134;59.284;18.022;2023-04-24T07:44:08;3.83;;;2.00;;
12141;SDS011;6134;59.284;18.022;2023-04-24T07:46:36;3.08;;;2.00;;
12141;SDS011;6134;59.284;18.022;2023-04-24T07:49:05;2.70;;;2.10;;
12141;SDS011;6134;59.284;18.022;2023-04-24T07:51:40;2.53;;;1.85;;
12141;SDS011;6134;59.284;18.022;2023-04-24T07:54:08;2.60;;;1.90;;
12141;SDS011;6134;59.284;18.022;2023-04-24T07:56:38;2.30;;;1.60;;
12141;SDS011;6134;59.284;18.022;2023-04-24T07:59:09;2.88;;;1.88;;
12141;SDS011;6134;59.284;18.022;2023-04-24T08:01:38;4.18;;;2.05;;
12141;SDS011;6134;59.284;18.022;2023-04-24T08:04:07;5.90;;;4.20;;
12141;SDS011;6134;59.284;18.022;2023-04-24T08:06:36;3.00;;;1.50;;
12141;SDS011;6134;59.284;18.022;2023-04-24T08:09:05;2.17;;;1.50;;
12141;SDS011;6134;59.284;18.022;2023-04-24T08:11:33;3.25;;;1.73;;
12141;SDS011;6134;59.284;18.022;2023-04-24T08:14:04;2.40;;;1.65;;
12141;SDS011;6134;59.284;18.022;2023-04-24T08:16:33;3.85;;;2.30;;
12141;SDS011;6134;59.284;18.022;2023-04-24T08:19:02;5.18;;;1.80;;
12141;SDS011;6134;59.284;18.022;2023-04-24T08:21:31;7.82;;;1.90;;
12141;SDS011;6134;59.284;18.022;2023-04-24T08:24:00;5.75;;;1.70;;
12141;SDS011;6134;59.284;18.022;2023-04-24T08:26:31;4.18;;;1.90;;
12141;SDS011;6134;59.284;18.022;2023-04-24T08:29:00;5.25;;;2.20;;
12141;SDS011;6134;59.284;18.022;2023-04-24T08:31:30;3.30;;;1.98;;
12141;SDS011;6134;59.284;18.022;2023-04-24T08:33:59;6.22;;;2.10;;
12141;SDS011;6134;59.284;18.022;2023-04-24T08:36:28;9.25;;;2.80;;
12141;SDS011;6134;59.284;18.022;2023-04-24T08:39:12;3.35;;;2.22;;
12141;SDS011;6134;59.284;18.022;2023-04-24T08:41:41;3.40;;;2.17;;
12141;SDS011;6134;59.284;18.022;2023-04-24T08:44:12;3.45;;;2.38;;
12141;SDS011;6134;59.284;18.022;2023-04-24T08:46:44;3.70;;;2.30;;
12141;SDS011;6134;59.284;18.022;2023-04-24T08:49:14;4.82;;;2.20;;
12141;SDS011;6134;59.284;18.022;2023-04-24T08:51:44;2.58;;;2.35;;
12141;SDS011;6134;59.284;18.022;2023-04-24T08:54:13;4.18;;;2.35;;
12141;SDS011;6134;59.284;18.022;2023-04-24T08:56:43;3.42;;;2.47;;
12141;SDS011;6134;59.284;18.022;2023-04-24T08:59:12;5.30;;;3.40;;
12141;SDS011;6134;59.284;18.022;2023-04-24T09:01:41;2.45;;;2.25;;
12141;SDS011;6134;59.284;18.022;2023-04-24T09:04:12;2.38;;;2.13;;
12141;SDS011;6134;59.284;18.022;2023-04-24T09:06:43;6.82;;;2.40;;
12141;SDS011;6134;59.284;18.022;2023-04-24T09:09:12;2.45;;;2.15;;
12141;SDS011;6134;59.284;18.022;2023-04-24T09:11:40;5.18;;;2.17;;
12141;SDS011;6134;59.284;18.022;2023-04-24T09:14:09;8.93;;;2.20;;
12141;SDS011;6134;59.284;18.022;2023-04-24T09:16:38;3.53;;;2.33;;
12141;SDS011;6134;59.284;18.022;2023-04-24T09:19:07;4.80;;;2.58;;
12141;SDS011;6134;59.284;18.022;2023-04-24T09:21:37;2.40;;;2.20;;
12141;SDS011;6134;59.284;18.022;2023-04-24T09:24:14;5.30;;;1.98;;
12141;SDS011;6134;59.284;18.022;2023-04-24T09:26:44;1.92;;;1.73;;
12141;SDS011;6134;59.284;18.022;2023-04-24T09:29:16;3.92;;;2.20;;
12141;SDS011;6134;59.284;18.022;2023-04-24T09:31:45;2.10;;;1.88;;
12141;SDS011;6134;59.284;18.022;2023-04-24T09:34:14;2.03;;;1.67;;
12141;SDS011;6134;59.284;18.022;2023-04-24T09:36:45;3.75;;;2.20;;
12141;SDS011;6134;59.284;18.022;2023-04-24T09:39:15;4.50;;;2.40;;
12141;SDS011;6134;59.284;18.022;2023-04-24T09:41:44;5.63;;;2.03;;
12141;SDS011;6134;59.284;18.022;2023-04-24T09:44:13;3.33;;;2.40;;
12141;SDS011;6134;59.284;18.022;2023-04-24T09:46:42;2.63;;;1.95;;
12141;SDS011;6134;59.284;18.022;2023-04-24T09:49:13;2.90;;;2.17;;
12141;SDS011;6134;59.284;18.022;2023-04-24T09:51:42;2.97;;;1.95;;
12141;SDS011;6134;59.284;18.022;2023-04-24T09:54:17;3.10;;;2.38;;
12141;SDS011;6134;59.284;18.022;2023-04-24T09:56:48;5.05;;;2.40;;
12141;SDS011;6134;59.284;18.022;2023-04-24T09:59:18;4.22;;;2.53;;
12141;SDS011;6134;59.284;18.022;2023-04-24T10:01:47;4.28;;;2.22;;
12141;SDS011;6134;59.284;18.022;2023-04-24T10:04:18;9.88;;;2.95;;
12141;SDS011;6134;59.284;18.022;2023-04-24T10:06:47;8.07;;;2.58;;
12141;SDS011;6134;59.284;18.022;2023-04-24T10:09:18;4.68;;;2.25;;
12141;SDS011;6134;59.284;18.022;2023-04-24T10:11:48;6.95;;;2.60;;
12141;SDS011;6134;59.284;18.022;2023-04-24T10:14:18;17.20;;;4.07;;
12141;SDS011;6134;59.284;18.022;2023-04-24T10:16:47;5.43;;;1.80;;
12141;SDS011;6134;59.284;18.022;2023-04-24T10:19:17;3.35;;;1.83;;
12141;SDS011;6134;59.284;18.022;2023-04-24T10:21:46;13.10;;;2.42;;
12141;SDS011;6134;59.284;18.022;2023-04-24T10:24:15;2.33;;;1.70;;
12141;SDS011;6134;59.284;18.022;2023-04-24T10:26:46;2.97;;;1.38;;
12141;SDS011;6134;59.284;18.022;2023-04-24T10:29:16;1.98;;;1.30;;
12141;SDS011;6134;59.284;18.022;2023-04-24T10:31:45;5.03;;;1.70;;
12141;SDS011;6134;59.284;18.022;2023-04-24T10:34:15;6.20;;;2.00;;
12141;SDS011;6134;59.284;18.022;2023-04-24T10:36:45;2.80;;;1.50;;
12141;SDS011;6134;59.284;18.022;2023-04-24T10:39:16;8.48;;;2.17;;
12141;SDS011;6134;59.284;18.022;2023-04-24T10:41:54;3.85;;;2.03;;
12141;SDS011;6134;59.284;18.022;2023-04-24T10:44:25;10.95;;;2.55;;
12141;SDS011;6134;59.284;18.022;2023-04-24T10:47:04;3.70;;;1.92;;
12141;SDS011;6134;59.284;18.022;2023-04-24T10:49:33;4.63;;;2.30;;
12141;SDS011;6134;59.284;18.022;2023-04-24T10:52:02;4.20;;;1.92;;
12141;SDS011;6134;59.284;18.022;2023-04-24T10:54:34;7.05;;;2.30;;
12141;SDS011;6134;59.284;18.022;2023-04-24T11:02:40;4.22;;;1.70;;
12141;SDS011;6134;59.284;18.022;2023-04-24T11:05:15;4.00;;;1.63;;
12141;SDS011;6134;59.284;18.022;2023-04-24T11:10:32;4.20;;;1.80;;
12141;SDS011;6134;59.284;18.022;2023-04-24T11:13:01;15.43;;;2.47;;
12141;SDS011;6134;59.284;18.022;2023-04-24T11:15:31;6.32;;;2.60;;
12141;SDS011;6134;59.284;18.022;2023-04-24T11:18:01;6.15;;;2.45;;
12141;SDS011;6134;59.284;18.022;2023-04-24T11:20:30;2.13;;;1.83;;
12141;SDS011;6134;59.284;18.022;2023-04-24T11:23:03;6.40;;;2.58;;
12141;SDS011;6134;59.284;18.022;2023-04-24T11:25:33;4.15;;;2.10;;
12141;SDS011;6134;59.284;18.022;2023-04-24T11:28:04;12.43;;;3.78;;
12141;SDS011;6134;59.284;18.022;2023-04-24T11:30:33;6.82;;;2.13;;
12141;SDS011;6134;59.284;18.022;2023-04-24T11:33:04;3.40;;;1.90;;
12141;SDS011;6134;59.284;18.022;2023-04-24T11:35:39;5.43;;;2.00;;
12141;SDS011;6134;59.284;18.022;2023-04-24T11:38:08;1.75;;;1.38;;
12141;SDS011;6134;59.284;18.022;2023-04-24T11:40:50;3.45;;;2.00;;
12141;SDS011;6134;59.284;18.022;2023-04-24T11:43:19;2.55;;;1.75;;
12141;SDS011;6134;59.284;18.022;2023-04-24T11:45:48;4.43;;;2.00;;
12141;SDS011;6134;59.284;18.022;2023-04-24T11:48:20;8.85;;;3.17;;
12141;SDS011;6134;59.284;18.022;2023-04-24T11:50:49;3.58;;;1.90;;
12141;SDS011;6134;59.284;18.022;2023-04-24T11:53:19;3.25;;;2.00;;
12141;SDS011;6134;59.284;18.022;2023-04-24T11:55:48;4.32;;;2.40;;
12141;SDS011;6134;59.284;18.022;2023-04-24T11:58:20;2.88;;;2.00;;
12141;SDS011;6134;59.284;18.022;2023-04-24T12:00:55;5.80;;;2.17;;
12141;SDS011;6134;59.284;18.022;2023-04-24T12:03:26;4.68;;;1.90;;
12141;SDS011;6134;59.284;18.022;2023-04-24T12:06:04;3.08;;;1.90;;
12141;SDS011;6134;59.284;18.022;2023-04-24T12:08:34;3.17;;;2.17;;
12141;SDS011;6134;59.284;18.022;2023-04-24T12:11:04;3.00;;;2.38;;
12141;SDS011;6134;59.284;18.022;2023-04-24T12:13:34;3.22;;;2.17;;
12141;SDS011;6134;59.284;18.022;2023-04-24T12:16:03;5.65;;;2.55;;
12141;SDS011;6134;59.284;18.022;2023-04-24T12:18:34;11.68;;;2.80;;
12141;SDS011;6134;59.284;18.022;2023-04-24T12:23:49;9.98;;;3.20;;
12141;SDS011;6134;59.284;18.022;2023-04-24T12:26:18;5.05;;;2.75;;
12141;SDS011;6134;59.284;18.022;2023-04-24T12:28:49;9.10;;;3.00;;
12141;SDS011;6134;59.284;18.022;2023-04-24T12:31:18;11.57;;;2.83;;
12141;SDS011;6134;59.284;18.022;2023-04-24T12:33:51;4.18;;;2.47;;
12141;SDS011;6134;59.284;18.022;2023-04-24T12:36:20;5.03;;;2.85;;
12141;SDS011;6134;59.284;18.022;2023-04-24T12:38:52;6.78;;;2.65;;
12141;SDS011;6134;59.284;18.022;2023-04-24T12:41:21;5.70;;;2.58;;
12141;SDS011;6134;59.284;18.022;2023-04-24T12:43:53;6.57;;;2.80;;
12141;SDS011;6134;59.284;18.022;2023-04-24T12:46:22;6.05;;;2.70;;
12141;SDS011;6134;59.284;18.022;2023-04-24T12:48:53;10.45;;;2.90;;
12141;SDS011;6134;59.284;18.022;2023-04-24T12:51:22;6.50;;;3.25;;
12141;SDS011;6134;59.284;18.022;2023-04-24T12:53:51;6.45;;;3.28;;
12141;SDS011;6134;59.284;18.022;2023-04-24T12:56:22;17.38;;;4.57;;
12141;SDS011;6134;59.284;18.022;2023-04-24T12:58:51;7.72;;;3.17;;
12141;SDS011;6134;59.284;18.022;2023-04-24T13:01:20;8.75;;;3.65;;
12141;SDS011;6134;59.284;18.022;2023-04-24T13:03:49;5.75;;;3.35;;
12141;SDS011;6134;59.284;18.022;2023-04-24T13:06:19;15.82;;;4.53;;
12141;SDS011;6134;59.284;18.022;2023-04-24T13:08:48;8.98;;;2.97;;
12141;SDS011;6134;59.284;18.022;2023-04-24T13:11:18;5.78;;;3.45;;
12141;SDS011;6134;59.284;18.022;2023-04-24T13:13:48;7.70;;;3.70;;
12141;SDS011;6134;59.284;18.022;2023-04-24T13:16:19;9.93;;;4.15;;
12141;SDS011;6134;59.284;18.022;2023-04-24T13:18:49;14.18;;;3.60;;
12141;SDS011;6134;59.284;18.022;2023-04-24T13:21:19;8.18;;;3.10;;
12141;SDS011;6134;59.284;18.022;2023-04-24T13:23:48;4.65;;;2.70;;
12141;SDS011;6134;59.284;18.022;2023-04-24T13:26:18;9.10;;;3.63;;
12141;SDS011;6134;59.284;18.022;2023-04-24T13:28:47;6.82;;;2.72;;
12141;SDS011;6134;59.284;18.022;2023-04-24T13:31:16;7.30;;;3.08;;
12141;SDS011;6134;59.284;18.022;2023-04-24T13:33:45;6.72;;;3.03;;
12141;SDS011;6134;59.284;18.022;2023-04-24T13:36:14;4.70;;;2.42;;
12141;SDS011;6134;59.284;18.022;2023-04-24T13:38:45;7.72;;;3.03;;
12141;SDS011;6134;59.284;18.022;2023-04-24T13:41:14;9.75;;;3.15;;
12141;SDS011;6134;59.284;18.022;2023-04-24T13:43:42;15.93;;;3.45;;
12141;SDS011;6134;59.284;18.022;2023-04-24T13:46:11;6.50;;;2.97;;
12141;SDS011;6134;59.284;18.022;2023-04-24T13:48:40;7.32;;;3.08;;
12141;SDS011;6134;59.284;18.022;2023-04-24T13:51:09;23.08;;;4.43;;
12141;SDS011;6134;59.284;18.022;2023-04-24T13:53:38;5.75;;;2.70;;
12141;SDS011;6134;59.284;18.022;2023-04-24T13:56:09;9.52;;;3.05;;
12141;SDS011;6134;59.284;18.022;2023-04-24T13:58:39;4.95;;;2.30;;
12141;SDS011;6134;59.284;18.022;2023-04-24T14:01:08;2.67;;;2.35;;
12141;SDS011;6134;59.284;18.022;2023-04-24T14:03:36;9.18;;;3.13;;
12141;SDS011;6134;59.284;18.022;2023-04-24T14:06:06;4.97;;;2.75;;
12141;SDS011;6134;59.284;18.022;2023-04-24T14:08:34;15.32;;;3.33;;
12141;SDS011;6134;59.284;18.022;2023-04-24T14:11:04;6.60;;;3.42;;
12141;SDS011;6134;59.284;18.022;2023-04-24T14:13:34;6.72;;;2.60;;
12141;SDS011;6134;59.284;18.022;2023-04-24T14:16:04;6.43;;;2.85;;
12141;SDS011;6134;59.284;18.022;2023-04-24T14:18:33;15.75;;;4.07;;
12141;SDS011;6134;59.284;18.022;2023-04-24T14:21:02;7.18;;;3.20;;
12141;SDS011;6134;59.284;18.022;2023-04-24T14:23:31;4.43;;;2.78;;
12141;SDS011;6134;59.284;18.022;2023-04-24T14:26:00;4.55;;;2.53;;
12141;SDS011;6134;59.284;18.022;2023-04-24T14:28:29;5.05;;;3.35;;
12141;SDS011;6134;59.284;18.022;2023-04-24T14:30:59;7.30;;;2.83;;
12141;SDS011;6134;59.284;18.022;2023-04-24T14:33:28;12.93;;;3.33;;
12141;SDS011;6134;59.284;18.022;2023-04-24T14:35:57;6.65;;;2.90;;
12141;SDS011;6134;59.284;18.022;2023-04-24T14:38:26;4.35;;;2.80;;
12141;SDS011;6134;59.284;18.022;2023-04-24T14:40:55;24.88;;;4.95;;
12141;SDS011;6134;59.284;18.022;2023-04-24T14:43:33;2.85;;;2.50;;
12141;SDS011;6134;59.284;18.022;2023-04-24T14:46:04;5.38;;;3.08;;
12141;SDS011;6134;59.284;18.022;2023-04-24T14:48:33;6.70;;;2.72;;
12141;SDS011;6134;59.284;18.022;2023-04-24T14:51:01;3.90;;;2.45;;
12141;SDS011;6134;59.284;18.022;2023-04-24T14:53:30;7.78;;;3.15;;
12141;SDS011;6134;59.284;18.022;2023-04-24T14:55:59;5.60;;;3.40;;
12141;SDS011;6134;59.284;18.022;2023-04-24T14:58:28;12.60;;;3.50;;
12141;SDS011;6134;59.284;18.022;2023-04-24T15:00:57;4.82;;;2.78;;
12141;SDS011;6134;59.284;18.022;2023-04-24T15:03:27;9.98;;;3.15;;
12141;SDS011;6134;59.284;18.022;2023-04-24T15:05:56;5.35;;;2.80;;
12141;SDS011;6134;59.284;18.022;2023-04-24T15:08:26;7.70;;;3.15;;
12141;SDS011;6134;59.284;18.022;2023-04-24T15:10:54;5.38;;;2.80;;
12141;SDS011;6134;59.284;18.022;2023-04-24T15:13:23;8.73;;;2.80;;
12141;SDS011;6134;59.284;18.022;2023-04-24T15:15:52;4.25;;;2.38;;